createdAt,value
2023-01-08T00:01:13.113Z,99550.50
2023-01-08T00:03:40.360Z,99558.41
2023-01-08T00:06:11.821Z,99548.44
2023-01-08T00:08:38.444Z,99553.56
2023-01-08T00:11:05.390Z,99553.16
2023-01-08T00:13:32.208Z,99538.31
2023-01-08T00:16:06.597Z,99540.75
2023-01-08T00:18:33.956Z,99537.88
2023-01-08T00:21:01.081Z,99530.69
2023-01-08T00:23:28.038Z,99531.44
2023-01-08T00:25:54.734Z,99536.19
2023-01-08T00:28:21.487Z,99526.59
2023-01-08T00:30:48.874Z,99530.56
2023-01-08T00:33:16.824Z,99529.38
2023-01-08T00:35:43.465Z,99525.72
2023-01-08T00:38:10.119Z,99521.41
2023-01-08T00:40:37.088Z,99529.31
2023-01-08T00:43:04.481Z,99526.44
2023-01-08T00:45:31.513Z,99514.13
2023-01-08T00:47:58.486Z,99511.34
2023-01-08T00:50:25.623Z,99499.34
2023-01-08T00:52:52.670Z,99499.75
2023-01-08T00:55:19.463Z,99507.69
2023-01-08T00:57:46.107Z,99512.09
2023-01-08T01:00:15.379Z,99508.84
2023-01-08T01:02:42.233Z,99518.41
2023-01-08T01:05:09.945Z,99514.88
2023-01-08T01:07:37.422Z,99508.56
2023-01-08T01:10:04.858Z,99503.78
2023-01-08T01:12:31.710Z,99493.34
2023-01-08T01:14:58.360Z,99495.22
2023-01-08T01:17:25.355Z,99490.81
2023-01-08T01:19:52.113Z,99492.53
2023-01-08T01:22:18.882Z,99490.38
2023-01-08T01:24:45.727Z,99495.22
2023-01-08T01:27:12.407Z,99483.78
2023-01-08T01:29:39.170Z,99487.69
2023-01-08T01:32:06.260Z,99488.03
2023-01-08T01:34:33.066Z,99488.50
2023-01-08T01:36:59.675Z,99481.00
2023-01-08T01:39:26.630Z,99482.47
2023-01-08T01:41:53.420Z,99482.53
2023-01-08T01:44:43.434Z,99472.06
2023-01-08T01:47:20.827Z,99469.00
2023-01-08T01:49:59.386Z,99475.31
2023-01-08T01:52:29.509Z,99472.06
2023-01-08T01:54:59.885Z,99478.50
2023-01-08T01:57:26.914Z,99476.88
2023-01-08T01:59:55.386Z,99483.19
2023-01-08T02:02:23.178Z,99474.41
2023-01-08T02:04:50.428Z,99474.31
2023-01-08T02:07:27.167Z,99477.09
2023-01-08T02:10:00.567Z,99481.44
2023-01-08T02:12:39.093Z,99479.13
2023-01-08T02:15:18.308Z,99479.13
2023-01-08T02:17:58.116Z,99479.97
2023-01-08T02:20:39.549Z,99482.41
2023-01-08T02:23:26.441Z,99471.91
2023-01-08T02:26:22.127Z,99473.97
2023-01-08T02:29:04.138Z,99460.88
2023-01-08T02:31:33.382Z,99464.81
2023-01-08T02:34:00.571Z,99451.28
2023-01-08T02:36:38.226Z,99443.19
2023-01-08T02:39:04.897Z,99449.66
2023-01-08T02:42:06.813Z,99452.00
2023-01-08T02:44:59.597Z,99451.19
2023-01-08T02:47:32.058Z,99449.22
2023-01-08T02:50:16.656Z,99448.03
2023-01-08T02:52:56.101Z,99446.44
2023-01-08T02:55:24.892Z,99449.22
2023-01-08T02:57:52.900Z,99441.94
2023-01-08T03:00:21.142Z,99436.03
2023-01-08T03:02:51.307Z,99427.72
2023-01-08T03:05:27.289Z,99437.34
2023-01-08T03:07:55.682Z,99429.56
2023-01-08T03:10:26.306Z,99421.06
2023-01-08T03:12:58.636Z,99427.09
2023-01-08T03:15:34.712Z,99412.94
2023-01-08T03:18:07.245Z,99424.91
2023-01-08T03:20:37.334Z,99420.50
2023-01-08T03:23:08.398Z,99420.78
2023-01-08T03:25:39.903Z,99425.66
2023-01-08T03:28:13.539Z,99422.53
2023-01-08T03:30:42.353Z,99426.94
2023-01-08T03:33:12.200Z,99430.38
2023-01-08T03:35:42.232Z,99428.63
2023-01-08T03:38:17.435Z,99424.00
2023-01-08T03:40:49.394Z,99426.41
2023-01-08T03:43:16.166Z,99432.34
2023-01-08T03:45:49.157Z,99431.91
2023-01-08T03:48:18.800Z,99430.28
2023-01-08T03:50:45.674Z,99431.19
2023-01-08T03:53:12.519Z,99428.69
2023-01-08T03:55:39.386Z,99415.78
2023-01-08T03:58:06.266Z,99418.28
2023-01-08T04:00:32.917Z,99419.16
2023-01-08T04:02:59.670Z,99412.13
2023-01-08T04:05:26.367Z,99409.91
2023-01-08T04:07:56.277Z,99398.50
2023-01-08T04:10:24.374Z,99409.56
2023-01-08T04:12:51.175Z,99398.00
2023-01-08T04:15:17.932Z,99395.28
2023-01-08T04:17:44.581Z,99393.75
2023-01-08T04:20:11.573Z,99394.50
2023-01-08T04:22:38.207Z,99406.28
2023-01-08T04:25:05.617Z,99402.75
2023-01-08T04:27:32.347Z,99397.19
2023-01-08T04:29:59.011Z,99402.31
2023-01-08T04:32:25.958Z,99398.66
2023-01-08T04:34:52.651Z,99402.25
2023-01-08T04:37:19.465Z,99405.53
2023-01-08T04:39:46.169Z,99404.72
2023-01-08T04:42:12.852Z,99400.28
2023-01-08T04:44:39.616Z,99393.41
2023-01-08T04:47:06.225Z,99393.78
2023-01-08T04:49:32.871Z,99387.84
2023-01-08T04:51:59.551Z,99386.16
2023-01-08T04:54:26.363Z,99397.28
2023-01-08T04:56:53.107Z,99387.78
2023-01-08T04:59:19.989Z,99434.38
2023-01-08T05:01:47.027Z,99445.25
2023-01-08T05:04:13.936Z,99452.22
2023-01-08T05:06:40.803Z,99452.78
2023-01-08T05:09:07.697Z,99434.19
2023-01-08T05:11:35.563Z,99446.16
2023-01-08T05:14:02.269Z,99448.84
2023-01-08T05:16:29.006Z,99439.03
2023-01-08T05:18:55.655Z,99437.72
2023-01-08T05:21:22.371Z,99438.97
2023-01-08T05:23:48.991Z,99437.28
2023-01-08T05:26:17.142Z,99440.06
2023-01-08T05:28:44.025Z,99427.16
2023-01-08T05:31:11.897Z,99429.47
2023-01-08T05:33:39.063Z,99424.91
2023-01-08T05:36:07.800Z,99425.09
2023-01-08T05:38:34.762Z,99421.50
2023-01-08T05:41:01.563Z,99410.47
2023-01-08T05:43:29.805Z,99407.31
2023-01-08T05:46:00.200Z,99413.91
2023-01-08T05:48:27.827Z,99413.16
2023-01-08T05:50:54.612Z,99398.00
2023-01-08T05:53:21.708Z,99407.94
2023-01-08T05:55:48.688Z,99393.53
2023-01-08T05:58:18.964Z,99392.00
2023-01-08T06:00:46.395Z,99400.28
2023-01-08T06:03:13.240Z,99398.22
2023-01-08T06:05:40.153Z,99396.59
2023-01-08T06:08:08.633Z,99403.78
2023-01-08T06:10:37.940Z,99406.38
2023-01-08T06:13:09.733Z,99423.91
2023-01-08T06:15:40.125Z,99412.78
2023-01-08T06:18:07.462Z,99416.75
2023-01-08T06:20:34.288Z,99412.22
2023-01-08T06:23:01.145Z,99409.25
2023-01-08T06:25:29.648Z,99405.22
2023-01-08T06:27:56.381Z,99409.25
2023-01-08T06:30:23.185Z,99418.03
2023-01-08T06:32:49.988Z,99416.97
2023-01-08T06:35:16.977Z,99408.34
2023-01-08T06:37:43.811Z,99415.09
2023-01-08T06:40:11.015Z,99417.22
2023-01-08T06:42:37.809Z,99419.97
2023-01-08T06:45:05.178Z,99411.44
2023-01-08T06:47:32.862Z,99414.38
2023-01-08T06:49:59.617Z,99410.06
2023-01-08T06:52:26.368Z,99410.69
2023-01-08T06:54:53.173Z,99407.69
2023-01-08T06:57:20.228Z,99406.59
2023-01-08T06:59:46.840Z,99405.88
2023-01-08T07:02:14.946Z,99409.66
2023-01-08T07:04:42.131Z,99408.84
2023-01-08T07:07:09.610Z,99406.97
2023-01-08T07:09:36.323Z,99394.75
2023-01-08T07:12:03.076Z,99401.13
2023-01-08T07:14:29.641Z,99404.63
2023-01-08T07:16:56.394Z,99399.25
2023-01-08T07:19:23.004Z,99401.59
2023-01-08T07:21:49.684Z,99409.31
2023-01-08T07:24:16.353Z,99405.19
2023-01-08T07:26:42.978Z,99411.03
2023-01-08T07:29:09.541Z,99416.03
2023-01-08T07:31:36.234Z,99424.38
2023-01-08T07:34:02.993Z,99413.97
2023-01-08T07:36:29.678Z,99414.16
2023-01-08T07:38:56.388Z,99407.06
2023-01-08T07:41:23.100Z,99408.16
2023-01-08T07:43:50.595Z,99405.91
2023-01-08T07:46:17.307Z,99408.25
2023-01-08T07:48:44.224Z,99405.75
2023-01-08T07:51:11.092Z,99403.75
2023-01-08T07:53:38.164Z,99398.56
2023-01-08T07:56:10.537Z,99402.50
2023-01-08T07:58:37.321Z,99391.50
2023-01-08T08:01:06.596Z,99380.28
2023-01-08T08:03:33.254Z,99385.41
2023-01-08T08:06:01.360Z,99378.94
2023-01-08T08:08:28.124Z,99382.44
2023-01-08T08:10:54.843Z,99375.44
2023-01-08T08:13:21.698Z,99374.81
2023-01-08T08:15:48.345Z,99368.09
2023-01-08T08:18:15.072Z,99371.50
2023-01-08T08:20:41.687Z,99377.06
2023-01-08T08:23:10.898Z,99368.34
2023-01-08T08:25:37.886Z,99366.84
2023-01-08T08:28:05.157Z,99367.00
2023-01-08T08:30:33.822Z,99369.25
2023-01-08T08:33:03.195Z,99366.63
2023-01-08T08:35:31.177Z,99361.50
2023-01-08T08:37:58.120Z,99360.31
2023-01-08T08:40:25.336Z,99357.38
2023-01-08T08:42:59.536Z,99358.47
2023-01-08T08:45:27.339Z,99353.72
2023-01-08T08:47:54.528Z,99345.66
2023-01-08T08:50:22.366Z,99340.84
2023-01-08T08:52:49.194Z,99340.84
2023-01-08T08:55:17.429Z,99340.13
2023-01-08T08:57:45.769Z,99340.13
2023-01-08T09:00:13.714Z,99329.88
2023-01-08T09:02:40.856Z,99340.13
2023-01-08T09:05:07.971Z,99332.13
2023-01-08T09:07:34.763Z,99328.19
2023-01-08T09:10:01.746Z,99336.31
2023-01-08T09:12:28.512Z,99326.53
2023-01-08T09:14:57.115Z,99317.19
2023-01-08T09:17:25.561Z,99316.16
2023-01-08T09:19:52.292Z,99313.66
2023-01-08T09:22:19.356Z,99321.63
2023-01-08T09:24:46.169Z,99320.19
2023-01-08T09:27:13.473Z,99307.59
2023-01-08T09:29:40.179Z,99308.19
2023-01-08T09:32:07.889Z,99313.53
2023-01-08T09:34:36.327Z,99300.28
2023-01-08T09:37:03.852Z,99311.34
2023-01-08T09:39:31.050Z,99305.19
2023-01-08T09:41:59.196Z,99301.78
2023-01-08T09:44:34.037Z,99301.03
2023-01-08T09:47:01.677Z,99296.47
2023-01-08T09:49:40.540Z,99298.19
2023-01-08T09:52:11.713Z,99292.19
2023-01-08T09:54:39.851Z,99290.28
2023-01-08T09:57:10.189Z,99290.81
2023-01-08T09:59:37.031Z,99292.50
2023-01-08T10:02:04.667Z,99285.78
2023-01-08T10:04:33.264Z,99285.81
2023-01-08T10:07:11.577Z,99293.06
2023-01-08T10:09:39.938Z,99276.34
2023-01-08T10:12:07.761Z,99274.47
2023-01-08T10:14:37.986Z,99276.44
2023-01-08T10:17:45.599Z,99274.84
2023-01-08T10:20:20.810Z,99281.34
2023-01-08T10:22:48.902Z,99280.59
2023-01-08T10:25:17.288Z,99277.00
2023-01-08T10:27:49.868Z,99269.44
2023-01-08T10:30:20.477Z,99273.09
2023-01-08T10:32:53.545Z,99269.50
2023-01-08T10:35:24.503Z,99264.84
2023-01-08T10:37:51.185Z,99261.31
2023-01-08T10:40:31.153Z,99258.59
2023-01-08T10:43:12.460Z,99264.53
2023-01-08T10:45:40.711Z,99270.97
2023-01-08T10:48:13.677Z,99265.00
2023-01-08T10:50:40.511Z,99260.28
2023-01-08T10:53:24.887Z,99261.19
2023-01-08T10:56:03.685Z,99250.03
2023-01-08T10:58:40.379Z,99253.69
2023-01-08T11:01:29.942Z,99257.34
2023-01-08T11:04:03.239Z,99243.00
2023-01-08T11:06:47.118Z,99241.44
2023-01-08T11:09:22.839Z,99247.47
2023-01-08T11:11:50.044Z,99251.19
2023-01-08T11:14:22.493Z,99244.81
2023-01-08T11:16:49.752Z,99248.81
2023-01-08T11:19:19.460Z,99240.03
2023-01-08T11:21:56.208Z,99241.66
2023-01-08T11:24:27.400Z,99242.13
2023-01-08T11:27:30.050Z,99237.81
2023-01-08T11:30:08.019Z,99236.19
2023-01-08T11:32:43.866Z,99226.72
2023-01-08T11:35:28.534Z,99221.94
2023-01-08T11:37:59.454Z,99214.03
2023-01-08T11:40:44.403Z,99222.03
2023-01-08T11:43:38.792Z,99217.69
2023-01-08T11:46:42.853Z,99209.34
2023-01-08T11:49:21.512Z,99208.72
2023-01-08T11:52:09.769Z,99204.41
2023-01-08T11:55:13.780Z,99199.22
2023-01-08T11:57:46.481Z,99196.91
2023-01-08T12:00:27.253Z,99190.94
2023-01-08T12:03:00.258Z,99189.78
2023-01-08T12:05:41.755Z,99186.63
2023-01-08T12:08:21.380Z,99186.22
2023-01-08T12:11:06.332Z,99178.63
2023-01-08T12:13:42.058Z,99177.13
2023-01-08T12:16:37.171Z,99171.16
2023-01-08T12:19:28.357Z,99179.50
2023-01-08T12:22:09.964Z,99173.94
2023-01-08T12:25:10.859Z,99170.72
2023-01-08T12:28:11.850Z,99162.81
2023-01-08T12:31:00.707Z,99170.72
2023-01-08T12:33:54.468Z,99165.06
2023-01-08T12:36:26.482Z,99161.00
2023-01-08T12:39:01.566Z,99157.50
2023-01-08T12:41:31.790Z,99156.31
2023-01-08T12:44:03.089Z,99156.25
2023-01-08T12:46:34.559Z,99152.31
2023-01-08T12:49:04.381Z,99146.25
2023-01-08T12:51:49.601Z,99157.03
2023-01-08T12:54:24.125Z,99151.41
2023-01-08T12:57:07.145Z,99145.06
2023-01-08T12:59:46.494Z,99138.28
2023-01-08T13:02:32.180Z,99140.22
2023-01-08T13:04:58.987Z,99128.25
2023-01-08T13:07:28.054Z,99129.81
2023-01-08T13:10:05.265Z,99128.25
2023-01-08T13:12:37.690Z,99129.06
2023-01-08T13:15:05.714Z,99124.56
2023-01-08T13:17:32.738Z,99121.03
2023-01-08T13:20:06.244Z,99114.66
2023-01-08T13:22:37.326Z,99109.09
2023-01-08T13:25:17.121Z,99101.88
2023-01-08T13:27:45.756Z,99098.69
2023-01-08T13:30:43.446Z,99105.84
2023-01-08T13:33:26.963Z,99109.06
2023-01-08T13:36:13.560Z,99094.66
2023-01-08T13:38:41.278Z,99095.09
2023-01-08T13:41:27.401Z,99086.41
2023-01-08T13:44:02.552Z,99086.84
2023-01-08T13:46:30.066Z,99071.31
2023-01-08T13:49:02.680Z,99074.91
2023-01-08T13:51:38.244Z,99070.16
2023-01-08T13:54:14.029Z,99059.03
2023-01-08T13:56:42.993Z,99059.03
2023-01-08T13:59:33.783Z,99048.28
2023-01-08T14:02:01.454Z,99045.50
2023-01-08T14:04:28.420Z,99038.66
2023-01-08T14:07:14.524Z,99034.72
2023-01-08T14:09:41.366Z,99034.75
2023-01-08T14:12:14.433Z,99034.41
2023-01-08T14:14:47.771Z,99019.22
2023-01-08T14:17:18.264Z,99018.41
2023-01-08T14:19:45.447Z,99020.81
2023-01-08T14:22:19.214Z,99016.78
2023-01-08T14:24:52.684Z,99022.84
2023-01-08T14:27:28.395Z,99017.25
2023-01-08T14:29:56.015Z,99015.22
2023-01-08T14:32:25.541Z,99010.88
2023-01-08T14:34:54.386Z,99009.25
2023-01-08T14:37:21.252Z,99008.03
2023-01-08T14:39:54.353Z,99002.84
2023-01-08T14:42:42.346Z,99000.06
2023-01-08T14:45:16.017Z,99003.28
2023-01-08T14:47:49.295Z,98999.69
2023-01-08T14:50:24.190Z,99001.69
2023-01-08T14:52:52.938Z,98989.25
2023-01-08T14:55:21.086Z,98987.25
2023-01-08T14:57:51.652Z,98991.66
2023-01-08T15:00:25.199Z,98983.66
2023-01-08T15:02:52.140Z,98987.63
2023-01-08T15:05:24.663Z,98983.25
2023-01-08T15:08:24.075Z,98994.00
2023-01-08T15:10:59.702Z,98989.63
2023-01-08T15:13:32.517Z,98983.63
2023-01-08T15:16:08.989Z,98995.97
2023-01-08T15:18:45.431Z,98985.19
2023-01-08T15:21:18.289Z,98991.19
2023-01-08T15:23:48.884Z,98982.44
2023-01-08T15:26:16.624Z,98975.66
2023-01-08T15:28:58.269Z,98979.25
2023-01-08T15:31:30.550Z,98971.69
2023-01-08T15:33:58.929Z,98977.25
2023-01-08T15:36:26.371Z,98976.09
2023-01-08T15:38:53.391Z,98962.88
2023-01-08T15:41:40.606Z,98965.69
2023-01-08T15:44:14.490Z,98976.09
2023-01-08T15:46:41.079Z,98967.69
2023-01-08T15:49:07.683Z,98964.50
2023-01-08T15:51:37.307Z,98970.53
2023-01-08T15:54:04.132Z,98970.53
2023-01-08T15:56:30.758Z,98968.13
2023-01-08T15:58:57.576Z,98958.97
2023-01-08T16:01:27.740Z,98963.38
2023-01-08T16:03:54.438Z,98955.75
2023-01-08T16:06:21.147Z,98955.31
2023-01-08T16:09:12.792Z,98959.31
2023-01-08T16:11:39.595Z,98949.72
2023-01-08T16:14:06.154Z,98948.13
2023-01-08T16:16:33.015Z,98945.31
2023-01-08T16:19:00.008Z,98944.94
2023-01-08T16:21:26.723Z,98935.31
2023-01-08T16:23:53.299Z,98936.91
2023-01-08T16:26:44.864Z,98925.75
2023-01-08T16:29:11.496Z,98920.53
2023-01-08T16:31:38.593Z,98910.53
2023-01-08T16:34:05.288Z,98911.34
2023-01-08T16:36:31.853Z,98900.97
2023-01-08T16:38:58.512Z,98900.97
2023-01-08T16:41:25.110Z,98889.78
2023-01-08T16:44:04.632Z,98888.19
2023-01-08T16:46:32.421Z,98879.41
2023-01-08T16:48:59.394Z,98886.56
2023-01-08T16:51:27.819Z,98880.59
2023-01-08T16:53:54.639Z,98876.63
2023-01-08T16:56:21.236Z,98875.84
2023-01-08T16:58:50.538Z,98875.78
2023-01-08T17:01:17.495Z,98868.59
2023-01-08T17:03:44.196Z,98873.00
2023-01-08T17:06:13.270Z,98869.03
2023-01-08T17:08:41.655Z,98869.81
2023-01-08T17:11:10.679Z,98860.22
2023-01-08T17:13:37.851Z,98847.03
2023-01-08T17:16:06.819Z,98851.44
2023-01-08T17:18:34.101Z,98846.25
2023-01-08T17:21:00.986Z,98842.69
2023-01-08T17:23:28.867Z,98848.28
2023-01-08T17:25:56.755Z,98848.66
2023-01-08T17:28:28.422Z,98843.47
2023-01-08T17:31:02.340Z,98841.47
2023-01-08T17:33:28.997Z,98840.25
2023-01-08T17:35:55.744Z,98835.09
2023-01-08T17:38:22.377Z,98834.28
2023-01-08T17:40:49.078Z,98816.72
2023-01-08T17:43:15.773Z,98817.94
2023-01-08T17:45:42.560Z,98818.78
2023-01-08T17:48:09.394Z,98817.56
2023-01-08T17:50:39.251Z,98824.34
2023-01-08T17:53:05.817Z,98812.78
2023-01-08T17:55:32.545Z,98802.81
2023-01-08T17:57:59.202Z,98794.88
2023-01-08T18:00:26.249Z,98803.63
2023-01-08T18:02:53.035Z,98794.84
2023-01-08T18:05:19.878Z,98793.63
2023-01-08T18:07:46.865Z,98786.03
2023-01-08T18:10:13.718Z,98796.03
2023-01-08T18:12:40.535Z,98795.22
2023-01-08T18:15:08.564Z,98790.06
2023-01-08T18:17:35.399Z,98778.88
2023-01-08T18:20:02.233Z,98774.88
2023-01-08T18:22:29.084Z,98775.69
2023-01-08T18:24:55.893Z,98781.25
2023-01-08T18:27:22.731Z,98786.44
2023-01-08T18:29:49.413Z,98782.06
2023-01-08T18:32:17.305Z,98766.88
2023-01-08T18:34:44.093Z,98770.09
2023-01-08T18:37:10.901Z,98762.09
2023-01-08T18:39:37.867Z,98765.28
2023-01-08T18:42:23.140Z,98767.69
2023-01-08T18:44:52.555Z,98752.13
2023-01-08T18:47:20.611Z,98754.13
2023-01-08T18:49:47.452Z,98756.09
2023-01-08T18:52:15.072Z,98742.94
2023-01-08T18:54:41.690Z,98738.59
2023-01-08T18:57:08.239Z,98736.16
2023-01-08T18:59:34.882Z,98732.56
2023-01-08T19:02:01.795Z,98736.56
2023-01-08T19:04:28.974Z,98736.56
2023-01-08T19:06:55.759Z,98729.78
2023-01-08T19:09:22.454Z,98727.81
2023-01-08T19:11:49.116Z,98729.00
2023-01-08T19:14:15.769Z,98727.00
2023-01-08T19:16:48.295Z,98725.81
2023-01-08T19:19:15.047Z,98713.44
2023-01-08T19:21:41.659Z,98709.44
2023-01-08T19:24:08.504Z,98709.44
2023-01-08T19:26:35.636Z,98692.69
2023-01-08T19:29:04.818Z,98695.09
2023-01-08T19:31:32.241Z,98698.28
2023-01-08T19:34:00.196Z,98687.09
2023-01-08T19:36:27.601Z,98692.69
2023-01-08T19:38:54.654Z,98679.94
2023-01-08T19:41:57.323Z,98681.53
2023-01-08T19:44:24.078Z,98669.56
2023-01-08T19:46:50.777Z,98671.97
2023-01-08T19:49:17.511Z,98668.75
2023-01-08T19:51:44.193Z,98662.41
2023-01-08T19:54:12.624Z,98659.59
2023-01-08T19:56:39.520Z,98655.59
2023-01-08T19:59:06.132Z,98647.25
2023-01-08T20:01:33.740Z,98652.41
2023-01-08T20:04:00.614Z,98648.03
2023-01-08T20:06:28.123Z,98642.44
2023-01-08T20:08:58.748Z,98641.25
2023-01-08T20:11:26.239Z,98639.25
2023-01-08T20:14:00.264Z,98633.25
2023-01-08T20:16:29.004Z,98628.88
2023-01-08T20:18:57.997Z,98627.28
2023-01-08T20:21:25.292Z,98629.69
2023-01-08T20:24:02.153Z,98626.09
2023-01-08T20:26:31.072Z,98622.09
2023-01-08T20:28:58.870Z,98622.50
2023-01-08T20:31:29.460Z,98628.88
2023-01-08T20:34:00.597Z,98621.69
2023-01-08T20:36:29.737Z,98618.91
2023-01-08T20:39:02.700Z,98626.47
2023-01-08T20:41:29.934Z,98619.31
2023-01-08T20:43:56.614Z,98614.53
2023-01-08T20:46:28.519Z,98619.31
2023-01-08T20:48:56.935Z,98618.88
2023-01-08T20:51:23.613Z,98621.66
2023-01-08T20:53:50.368Z,98628.03
2023-01-08T20:56:17.425Z,98620.84
2023-01-08T20:58:46.743Z,98616.88
2023-01-08T21:01:18.233Z,98622.06
2023-01-08T21:03:46.083Z,98604.13
2023-01-08T21:06:16.199Z,98605.75
2023-01-08T21:08:44.473Z,98595.38
2023-01-08T21:11:13.825Z,98595.41
2023-01-08T21:13:40.849Z,98587.41
2023-01-08T21:16:15.908Z,98588.59
2023-01-08T21:18:49.418Z,98573.03
2023-01-08T21:21:19.855Z,98579.44
2023-01-08T21:23:47.675Z,98569.88
2023-01-08T21:26:15.859Z,98564.25
2023-01-08T21:28:43.661Z,98569.84
2023-01-08T21:31:11.311Z,98569.84
2023-01-08T21:33:38.455Z,98558.69
2023-01-08T21:36:08.711Z,98556.31
2023-01-08T21:38:37.230Z,98552.28
2023-01-08T21:41:08.252Z,98551.91
2023-01-08T21:43:53.580Z,98540.75
2023-01-08T21:46:23.932Z,98549.91
2023-01-08T21:48:52.203Z,98538.75
2023-01-08T21:51:37.639Z,98538.75
2023-01-08T21:54:04.757Z,98524.38
2023-01-08T21:56:31.583Z,98527.56
2023-01-08T21:58:58.414Z,98523.56
2023-01-08T22:01:25.347Z,98516.03
2023-01-08T22:03:52.060Z,98519.59
2023-01-08T22:06:18.723Z,98517.59
2023-01-08T22:08:50.314Z,98521.19
2023-01-08T22:11:17.133Z,98514.81
2023-01-08T22:13:43.793Z,98508.03
2023-01-08T22:16:10.645Z,98508.44
2023-01-08T22:18:37.977Z,98511.63
2023-01-08T22:21:09.561Z,98515.59
2023-01-08T22:23:36.412Z,98506.84
2023-01-08T22:26:10.682Z,98508.41
2023-01-08T22:28:39.403Z,98508.00
2023-01-08T22:31:11.239Z,98503.63
2023-01-08T22:33:39.626Z,98509.56
2023-01-08T22:36:09.307Z,98505.19
2023-01-08T22:38:36.609Z,98498.00
2023-01-08T22:41:04.014Z,98501.97
2023-01-08T22:43:30.861Z,98501.91
2023-01-08T22:45:59.868Z,98500.31
2023-01-08T22:48:27.704Z,98505.09
2023-01-08T22:50:54.769Z,98509.06
2023-01-08T22:53:21.656Z,98517.81
2023-01-08T22:55:48.718Z,98522.97
2023-01-08T22:58:17.199Z,98531.31
2023-01-08T23:00:44.640Z,98528.13
2023-01-08T23:03:13.154Z,98536.09
2023-01-08T23:05:40.505Z,98546.41
2023-01-08T23:08:08.901Z,98561.13
2023-01-08T23:10:35.741Z,98578.19
2023-01-08T23:13:02.574Z,98580.16
2023-01-08T23:15:29.427Z,98589.72
2023-01-08T23:17:56.395Z,98592.88
2023-01-08T23:20:24.853Z,98601.22
2023-01-08T23:22:51.602Z,98598.03
2023-01-08T23:25:18.255Z,98589.66
2023-01-08T23:27:45.586Z,98591.25
2023-01-08T23:30:12.656Z,98589.59
2023-01-08T23:32:39.936Z,98582.47
2023-01-08T23:35:06.791Z,98574.88
2023-01-08T23:37:34.370Z,98582.84
2023-01-08T23:40:01.117Z,98590.75
2023-01-08T23:42:29.431Z,98604.28
2023-01-08T23:44:56.584Z,98602.66
2023-01-08T23:47:23.745Z,98597.88
2023-01-08T23:49:50.510Z,98595.84
2023-01-08T23:52:17.099Z,98598.63
2023-01-08T23:54:43.703Z,98616.13
2023-01-08T23:57:10.263Z,98616.13
2023-01-08T23:59:37.108Z,98618.50
